Time;durP1;ratioP1;P1;durP2;ratioP2;P2;SDS_P1;SDS_P2;PMS_P1;PMS_P2;Temp;Humidity;BMP_temperature;BMP_pressure;BME280_temperature;BME280_humidity;BME280_pressure;Samples;Min_cycle;Max_cycle;Signal;HPM_P1;HPM_P2
2023/03/06 00:00:37;;;;;;;;;;;;;;;-3.37;67.23;100033.34;107769;1259;124896;-80
2023/03/06 00:03:17;;;;;;;;;;;;;;;-3.36;67.44;100031.52;107809;1257;61849;-79
2023/03/06 00:05:45;;;;;;;;;;;;;;;-3.34;67.47;100031.13;108809;1260;59974;-80
2023/03/06 00:08:12;;;;;;;;;;;;;;;-3.33;67.45;100032.75;108850;1257;124188;-79
2023/03/06 00:10:39;;;;;;;;;;;;;;;-3.31;67.47;100030.61;108982;1254;65932;-80
2023/03/06 00:13:06;;;;;;;;;;;;;;;-3.29;67.56;100026.27;108477;1254;125022;-82
2023/03/06 00:15:34;;;;;;;;;;;;;;;-3.27;67.58;100025.07;107389;1256;61333;-81
2023/03/06 00:24:38;;;;;;;;;;;;;;;-3.23;67.57;100019.65;107153;1256;66644;-82
2023/03/06 00:27:41;;;;;;;;;;;;;;;-3.23;67.50;100017.95;107284;1255;72369;-81
2023/03/06 00:30:35;;;;;;;;;;;;;;;-3.21;67.65;100021.16;107169;1255;60563;-81
2023/03/06 00:33:04;;;;;;;;;;;;;;;-3.22;67.70;100018.40;107770;1259;60448;-80
2023/03/06 00:35:31;;;;;;;;;;;;;;;-3.22;67.64;100016.33;107632;1257;75067;-80
2023/03/06 00:41:06;;;;;;;;;;;;;;;-3.22;67.70;100015.79;107573;1254;72732;-82
2023/03/06 00:46:31;;;;;;;;;;;;;;;-3.24;67.72;100020.94;107914;1257;59675;-80
2023/03/06 00:52:12;;;;;;;;;;;;;;;-3.30;67.78;100021.58;107250;1258;66015;-82
2023/03/06 00:54:40;;;;;;;;;;;;;;;-3.32;67.79;100019.09;107381;1256;72534;-83
2023/03/06 00:57:17;;;;;;;;;;;;;;;-3.33;67.80;100017.98;107352;1254;61924;-82
2023/03/06 00:59:51;;;;;;;;;;;;;;;-3.31;68.01;100020.16;107459;1255;61247;-82
2023/03/06 01:05:37;;;;;;;;;;;;;;;-3.32;68.16;100021.33;107581;1256;67047;-83
2023/03/06 01:08:26;;;;;;;;;;;;;;;-3.30;68.34;100025.73;107278;1255;124192;-82
2023/03/06 01:17:49;;;;;;;;;;;;;;;-3.28;68.47;100014.89;107359;1259;73914;-82
2023/03/06 01:20:46;;;;;;;;;;;;;;;-3.27;68.50;100012.69;107252;1257;124202;-82
2023/03/06 01:23:22;;;;;;;;;;;;;;;-3.27;68.56;100010.99;107218;1257;71717;-82
2023/03/06 01:26:12;;;;;;;;;;;;;;;-3.26;68.63;100007.83;107253;1257;124770;-82
2023/03/06 01:28:46;;;;;;;;;;;;;;;-3.24;68.76;100005.67;107540;1256;61223;-83
2023/03/06 01:31:40;;;;;;;;;;;;;;;-3.24;68.72;100004.15;107590;1256;124381;-82
2023/03/06 01:34:25;;;;;;;;;;;;;;;-3.22;68.76;99998.43;107548;1257;67060;-82
2023/03/06 01:36:54;;;;;;;;;;;;;;;-3.22;68.80;99999.98;107197;1257;124889;-82
2023/03/06 01:39:30;;;;;;;;;;;;;;;-3.23;68.79;100000.41;107309;1256;60412;-82
2023/03/06 01:45:11;;;;;;;;;;;;;;;-3.26;68.77;99996.27;107510;1257;75987;-82
2023/03/06 01:47:39;;;;;;;;;;;;;;;-3.27;68.98;99995.36;107546;1256;66778;-83
2023/03/06 01:50:19;;;;;;;;;;;;;;;-3.28;68.96;99994.46;107212;1257;124499;-83
2023/03/06 01:52:54;;;;;;;;;;;;;;;-3.28;68.86;99991.36;107665;1258;59965;-82
2023/03/06 01:55:42;;;;;;;;;;;;;;;-3.31;69.00;99988.44;107159;1256;124359;-83
2023/03/06 01:58:12;;;;;;;;;;;;;;;-3.29;69.00;99988.20;107358;1256;74741;-83
2023/03/06 02:00:48;;;;;;;;;;;;;;;-3.30;69.01;99979.55;107422;1256;67052;-83
2023/03/06 02:03:17;;;;;;;;;;;;;;;-3.31;69.08;99978.99;107487;1257;72822;-81
2023/03/06 02:05:44;;;;;;;;;;;;;;;-3.33;69.05;99977.19;107666;1259;60604;-80
2023/03/06 02:08:13;;;;;;;;;;;;;;;-3.34;69.06;99977.77;107742;1256;125244;-81
2023/03/06 02:10:59;;;;;;;;;;;;;;;-3.33;69.15;99976.11;107751;1257;74668;-82
2023/03/06 02:13:28;;;;;;;;;;;;;;;-3.29;69.19;99977.05;107590;1256;124942;-81
2023/03/06 02:16:01;;;;;;;;;;;;;;;-3.26;69.30;99974.16;107706;1259;71242;-81
2023/03/06 02:18:28;;;;;;;;;;;;;;;-3.20;69.24;99974.58;107452;1257;61604;-82
2023/03/06 02:20:57;;;;;;;;;;;;;;;-3.15;69.29;99971.30;107220;1255;124669;-83
2023/03/06 02:23:46;;;;;;;;;;;;;;;-3.10;69.27;99970.61;107320;1257;74511;-83
2023/03/06 02:26:28;;;;;;;;;;;;;;;-3.03;69.24;99970.91;107378;1257;124571;-83
2023/03/06 02:29:02;;;;;;;;;;;;;;;-2.98;69.19;99970.06;107156;1259;71412;-83
2023/03/06 02:31:34;;;;;;;;;;;;;;;-2.92;69.27;99970.25;107416;1257;124689;-83
2023/03/06 02:34:25;;;;;;;;;;;;;;;-2.88;69.07;99967.79;107423;1255;60476;-83
2023/03/06 02:37:11;;;;;;;;;;;;;;;-2.83;68.98;99965.33;107166;1254;124787;-82
2023/03/06 02:39:41;;;;;;;;;;;;;;;-2.80;68.91;99961.41;107598;1257;67059;-83
2023/03/06 02:42:27;;;;;;;;;;;;;;;-2.78;68.93;99963.95;107587;1256;72959;-82
2023/03/06 02:44:56;;;;;;;;;;;;;;;-2.75;68.93;99965.01;107240;1255;125069;-83
2023/03/06 02:47:40;;;;;;;;;;;;;;;-2.72;68.90;99966.20;107798;1254;60661;-82
2023/03/06 02:50:32;;;;;;;;;;;;;;;-2.71;68.88;99968.84;107710;1254;123102;-83
2023/03/06 02:53:07;;;;;;;;;;;;;;;-2.73;68.75;99966.36;107317;1255;65479;-83
2023/03/06 02:55:34;;;;;;;;;;;;;;;-2.73;68.83;99963.56;107177;1255;123772;-82
2023/03/06 02:58:08;;;;;;;;;;;;;;;-2.74;68.75;99962.54;107190;1255;60456;-82
2023/03/06 03:00:44;;;;;;;;;;;;;;;-2.76;68.94;99957.41;107300;1254;62098;-82
2023/03/06 03:03:30;;;;;;;;;;;;;;;-2.78;68.72;99957.61;107377;1254;123697;-82
2023/03/06 03:06:16;;;;;;;;;;;;;;;-2.82;68.68;99959.25;107291;1254;65709;-82
2023/03/06 03:08:58;;;;;;;;;;;;;;;-2.87;68.57;99954.92;106976;1257;123780;-83
2023/03/06 03:11:31;;;;;;;;;;;;;;;-2.91;68.75;99952.10;107382;1257;59376;-83
2023/03/06 03:14:00;;;;;;;;;;;;;;;-2.95;68.67;99955.09;107273;1258;123937;-82
2023/03/06 03:16:50;;;;;;;;;;;;;;;-2.99;68.70;99951.23;107314;1255;73202;-83
2023/03/06 03:19:19;;;;;;;;;;;;;;;-3.04;68.67;99951.42;107201;1256;124097;-82
2023/03/06 03:25:22;;;;;;;;;;;;;;;-3.17;68.64;99950.58;107283;1254;124724;-82
2023/03/06 03:31:29;;;;;;;;;;;;;;;-3.32;68.75;99950.10;107258;1257;124680;-82
2023/03/06 03:34:19;;;;;;;;;;;;;;;-3.37;68.80;99946.17;107142;1259;66085;-82
2023/03/06 03:36:48;;;;;;;;;;;;;;;-3.42;68.79;99948.39;107301;1257;72812;-82
2023/03/06 03:39:23;;;;;;;;;;;;;;;-3.47;68.77;99947.55;107417;1254;60180;-83
2023/03/06 03:42:15;;;;;;;;;;;;;;;-3.53;68.82;99946.16;107424;1255;61213;-83
2023/03/06 03:44:56;;;;;;;;;;;;;;;-3.57;68.86;99945.87;106990;1260;124086;-82
2023/03/06 03:47:25;;;;;;;;;;;;;;;-3.60;68.95;99944.59;107218;1255;68196;-82
2023/03/06 03:50:12;;;;;;;;;;;;;;;-3.63;69.06;99946.29;107194;1257;124164;-82
2023/03/06 03:53:15;;;;;;;;;;;;;;;-3.67;69.11;99946.91;107337;1255;60373;-83
2023/03/06 03:56:06;;;;;;;;;;;;;;;-3.70;69.22;99944.81;107190;1257;124091;-83
2023/03/06 04:02:24;;;;;;;;;;;;;;;-3.78;69.15;99941.15;107090;1259;124211;-83
2023/03/06 04:04:51;;;;;;;;;;;;;;;-3.81;69.26;99945.95;107226;1255;71326;-82
2023/03/06 04:07:18;;;;;;;;;;;;;;;-3.83;69.43;99946.15;107253;1257;124678;-83
2023/03/06 04:09:46;;;;;;;;;;;;;;;-3.85;69.46;99948.23;107890;1257;61114;-80
2023/03/06 04:12:31;;;;;;;;;;;;;;;-3.87;69.40;99945.33;107260;1254;73818;-83
2023/03/06 04:15:11;;;;;;;;;;;;;;;-3.92;69.38;99941.23;107336;1254;124467;-83
2023/03/06 04:17:44;;;;;;;;;;;;;;;-3.94;69.48;99943.33;107378;1254;71392;-83
2023/03/06 04:20:11;;;;;;;;;;;;;;;-3.97;69.56;99941.90;107453;1255;124580;-83
2023/03/06 04:22:39;;;;;;;;;;;;;;;-4.01;69.67;99942.18;107678;1257;61633;-82
2023/03/06 04:25:18;;;;;;;;;;;;;;;-4.04;69.63;99938.64;107398;1257;124950;-83
2023/03/06 04:27:54;;;;;;;;;;;;;;;-4.10;69.58;99938.30;107382;1257;67061;-83
2023/03/06 04:30:21;;;;;;;;;;;;;;;-4.13;69.60;99941.69;108078;1259;72697;-81
2023/03/06 04:36:36;;;;;;;;;;;;;;;-4.21;69.76;99944.86;107440;1255;60470;-83
2023/03/06 04:39:12;;;;;;;;;;;;;;;-4.24;69.98;99944.98;107073;1254;123845;-82
2023/03/06 04:48:18;;;;;;;;;;;;;;;-4.36;70.12;99944.31;107511;1258;62195;-82
2023/03/06 04:50:51;;;;;;;;;;;;;;;-4.38;70.08;99946.05;107119;1255;123955;-82
2023/03/06 04:53:20;;;;;;;;;;;;;;;-4.41;70.17;99943.09;107154;1262;74517;-84
2023/03/06 04:56:04;;;;;;;;;;;;;;;-4.41;70.31;99940.02;107224;1254;123017;-84
2023/03/06 04:59:03;;;;;;;;;;;;;;;-4.41;70.43;99942.41;107331;1254;71601;-84
2023/03/06 05:01:53;;;;;;;;;;;;;;;-4.41;70.55;99941.23;107279;1254;124159;-82
2023/03/06 05:04:39;;;;;;;;;;;;;;;-4.40;70.71;99942.17;107323;1256;59847;-84
2023/03/06 05:07:08;;;;;;;;;;;;;;;-4.38;70.86;99942.96;107195;1257;124215;-84
2023/03/06 05:09:44;;;;;;;;;;;;;;;-4.39;70.76;99939.63;107272;1256;65590;-83
2023/03/06 05:12:23;;;;;;;;;;;;;;;-4.41;70.76;99941.77;107344;1255;70226;-83
2023/03/06 05:18:15;;;;;;;;;;;;;;;-4.43;70.81;99942.14;107312;1254;61428;-84
2023/03/06 05:20:42;;;;;;;;;;;;;;;-4.42;70.99;99942.50;107362;1258;124263;-83
2023/03/06 05:23:12;;;;;;;;;;;;;;;-4.42;70.88;99944.22;107607;1254;66905;-83
2023/03/06 05:25:55;;;;;;;;;;;;;;;-4.41;71.03;99946.87;107678;1254;124371;-84
2023/03/06 05:28:25;;;;;;;;;;;;;;;-4.39;70.99;99950.63;107816;1256;60293;-83
2023/03/06 05:31:01;;;;;;;;;;;;;;;-4.39;71.00;99946.54;107742;1255;125537;-83
2023/03/06 05:33:30;;;;;;;;;;;;;;;-4.35;71.04;99950.07;107904;1258;75235;-83
2023/03/06 05:39:08;;;;;;;;;;;;;;;-4.29;71.13;99949.44;107877;1257;124639;-83
2023/03/06 05:41:35;;;;;;;;;;;;;;;-4.25;71.28;99948.85;108035;1255;60274;-82
2023/03/06 05:47:46;;;;;;;;;;;;;;;-4.13;71.20;99951.78;107240;1256;74641;-82
2023/03/06 05:50:21;;;;;;;;;;;;;;;-4.02;71.27;99957.81;107499;1255;124917;-86
2023/03/06 05:52:48;;;;;;;;;;;;;;;-3.95;71.14;99948.25;107423;1257;72713;-84
2023/03/06 05:58:45;;;;;;;;;;;;;;;-3.74;71.22;99952.78;107474;1257;61139;-84
2023/03/06 06:01:14;;;;;;;;;;;;;;;-3.63;71.18;99949.21;107460;1256;124566;-84
2023/03/06 06:03:41;;;;;;;;;;;;;;;-3.54;71.05;99944.52;107618;1258;65447;-80
2023/03/06 06:06:09;;;;;;;;;;;;;;;-3.43;71.03;99947.81;107943;1254;71797;-79
2023/03/06 06:08:37;;;;;;;;;;;;;;;-3.34;70.85;99949.31;107959;1254;125039;-80
2023/03/06 06:11:04;;;;;;;;;;;;;;;-3.25;70.79;99948.14;107839;1257;60991;-80
2023/03/06 06:13:31;;;;;;;;;;;;;;;-3.17;70.73;99951.93;107972;1257;124560;-80
2023/03/06 06:15:58;;;;;;;;;;;;;;;-3.09;70.67;99952.29;108357;1257;67340;-80
2023/03/06 06:18:26;;;;;;;;;;;;;;;-3.00;70.68;99952.42;107793;1255;71400;-84
2023/03/06 06:24:20;;;;;;;;;;;;;;;-2.79;70.41;99953.22;108067;1255;59324;-85
2023/03/06 06:26:56;;;;;;;;;;;;;;;-2.71;70.22;99956.30;108006;1254;123953;-84
2023/03/06 06:29:38;;;;;;;;;;;;;;;-2.65;70.24;99954.52;107667;1256;67079;-84
2023/03/06 06:39:21;;;;;;;;;;;;;;;-2.38;69.94;99959.79;107156;1254;123889;-84
2023/03/06 06:42:04;;;;;;;;;;;;;;;-2.30;69.86;99961.14;107266;1255;74702;-84
2023/03/06 06:44:59;;;;;;;;;;;;;;;-2.24;69.86;99954.52;107214;1254;124019;-84
2023/03/06 06:47:27;;;;;;;;;;;;;;;-2.15;69.66;99960.26;107375;1267;71381;-82
2023/03/06 06:49:54;;;;;;;;;;;;;;;-2.07;69.64;99956.75;107414;1260;123983;-82
2023/03/06 06:52:22;;;;;;;;;;;;;;;-2.02;69.61;99956.59;107939;1254;61321;-84
2023/03/06 06:55:08;;;;;;;;;;;;;;;-1.96;69.52;99954.55;107283;1254;124041;-84
2023/03/06 06:57:35;;;;;;;;;;;;;;;-1.88;69.33;99956.71;107314;1255;66755;-84
2023/03/06 07:03:19;;;;;;;;;;;;;;;-1.73;69.29;99953.17;107508;1258;122840;-84
2023/03/06 07:05:52;;;;;;;;;;;;;;;-1.65;69.25;99953.29;107542;1257;60140;-84
2023/03/06 07:08:19;;;;;;;;;;;;;;;-1.58;69.05;99951.00;107329;1254;124152;-84
2023/03/06 07:11:08;;;;;;;;;;;;;;;-1.50;68.96;99953.36;107341;1254;65727;-84
2023/03/06 07:13:38;;;;;;;;;;;;;;;-1.41;68.73;99952.85;107162;1254;124256;-84
2023/03/06 07:16:05;;;;;;;;;;;;;;;-1.34;68.74;99954.45;107218;1254;61976;-84
2023/03/06 07:18:46;;;;;;;;;;;;;;;-1.28;68.69;99950.89;107549;1254;60621;-84
2023/03/06 07:21:13;;;;;;;;;;;;;;;-1.20;68.53;99950.13;107320;1259;73314;-84
2023/03/06 07:24:15;;;;;;;;;;;;;;;-1.12;68.41;99952.54;107295;1259;67120;-84
2023/03/06 07:30:22;;;;;;;;;;;;;;;-0.92;68.16;99956.26;107027;1259;59212;-84
2023/03/06 07:35:55;;;;;;;;;;;;;;;-0.75;67.85;99955.51;107109;1254;74683;-84
2023/03/06 07:38:28;;;;;;;;;;;;;;;-0.66;67.79;99956.17;107111;1258;124136;-84
2023/03/06 07:41:12;;;;;;;;;;;;;;;-0.59;67.69;99955.75;107228;1254;70727;-84
2023/03/06 07:43:53;;;;;;;;;;;;;;;-0.50;67.54;99959.83;107061;1254;123929;-84
2023/03/06 07:53:37;;;;;;;;;;;;;;;-0.21;66.90;99958.67;107244;1256;67548;-84
2023/03/06 07:56:11;;;;;;;;;;;;;;;-0.12;66.77;99959.85;107176;1254;124119;-84
2023/03/06 08:02:12;;;;;;;;;;;;;;;0.07;66.50;99961.94;107083;1254;126934;-84
2023/03/06 08:04:39;;;;;;;;;;;;;;;0.15;66.40;99960.29;107126;1256;74644;-82
2023/03/06 08:07:06;;;;;;;;;;;;;;;0.24;66.16;99963.88;107354;1254;123777;-82
2023/03/06 08:09:33;;;;;;;;;;;;;;;0.34;65.94;99961.50;107650;1254;70489;-82
2023/03/06 08:12:00;;;;;;;;;;;;;;;0.44;65.83;99962.15;107386;1254;61321;-84
2023/03/06 08:14:27;;;;;;;;;;;;;;;0.51;65.60;99964.81;107079;1259;123548;-82
2023/03/06 08:16:55;;;;;;;;;;;;;;;0.59;65.40;99964.53;107589;1254;74275;-82
2023/03/06 08:19:41;;;;;;;;;;;;;;;0.66;65.21;99962.63;107304;1254;124104;-84
2023/03/06 08:22:09;;;;;;;;;;;;;;;0.73;65.06;99962.81;107337;1254;72821;-81
2023/03/06 08:24:41;;;;;;;;;;;;;;;0.80;64.91;99962.30;107693;1254;61199;-82
2023/03/06 08:27:10;;;;;;;;;;;;;;;0.87;64.92;99961.09;107514;1254;123510;-82
2023/03/06 08:29:37;;;;;;;;;;;;;;;0.93;64.66;99965.39;107738;1254;74195;-82
2023/03/06 08:32:04;;;;;;;;;;;;;;;0.99;64.57;99962.24;107769;1254;123550;-82
2023/03/06 08:34:31;;;;;;;;;;;;;;;1.06;64.47;99961.54;108069;1258;72672;-82
2023/03/06 08:36:58;;;;;;;;;;;;;;;1.11;64.12;99962.11;107783;1257;123954;-82
2023/03/06 08:39:25;;;;;;;;;;;;;;;1.16;64.05;99957.55;107731;1254;59504;-81
2023/03/06 08:41:52;;;;;;;;;;;;;;;1.23;63.77;99959.47;107493;1257;74458;-82
2023/03/06 08:44:19;;;;;;;;;;;;;;;1.32;63.90;99957.98;107879;1260;124261;-82
2023/03/06 08:46:47;;;;;;;;;;;;;;;1.41;63.56;99960.68;108017;1259;71128;-82
2023/03/06 08:49:14;;;;;;;;;;;;;;;1.50;63.51;99962.84;107783;1254;123720;-82
2023/03/06 08:51:41;;;;;;;;;;;;;;;1.58;63.03;99962.00;107842;1256;59628;-81
2023/03/06 08:54:09;;;;;;;;;;;;;;;1.63;62.90;99961.73;107760;1254;73405;-81
2023/03/06 08:56:36;;;;;;;;;;;;;;;1.70;62.72;99962.05;107377;1260;124093;-81
2023/03/06 08:59:04;;;;;;;;;;;;;;;1.79;62.45;99957.12;107705;1254;72406;-81
2023/03/06 09:01:32;;;;;;;;;;;;;;;1.87;62.38;99956.30;107812;1254;124459;-81
2023/03/06 09:04:00;;;;;;;;;;;;;;;1.96;62.24;99952.94;107726;1257;61345;-81
2023/03/06 09:06:28;;;;;;;;;;;;;;;2.07;62.11;99951.54;107590;1257;75249;-81
2023/03/06 09:08:55;;;;;;;;;;;;;;;2.19;61.85;99954.16;107529;1257;124438;-81
2023/03/06 09:11:23;;;;;;;;;;;;;;;2.33;61.60;99956.17;107694;1254;72581;-81
2023/03/06 09:13:53;;;;;;;;;;;;;;;2.50;61.49;99955.71;107576;1254;123897;-82
2023/03/06 09:16:20;;;;;;;;;;;;;;;2.68;61.23;99954.93;107432;1254;60922;-81
2023/03/06 09:18:49;;;;;;;;;;;;;;;2.86;60.86;99953.80;107526;1256;74711;-82
2023/03/06 09:21:16;;;;;;;;;;;;;;;3.12;60.84;99952.48;107437;1257;123471;-84
2023/03/06 09:23:49;;;;;;;;;;;;;;;3.43;60.61;99948.52;107465;1254;72192;-83
2023/03/06 09:26:17;;;;;;;;;;;;;;;3.70;60.24;99946.13;107410;1257;124390;-81
2023/03/06 09:29:14;;;;;;;;;;;;;;;3.90;60.01;99944.34;107238;1254;61724;-83
2023/03/06 09:32:01;;;;;;;;;;;;;;;4.03;59.38;99945.86;107268;1254;123828;-83
2023/03/06 09:41:01;;;;;;;;;;;;;;;4.13;58.43;99953.20;107001;1254;558331;-84
2023/03/06 09:43:29;;;;;;;;;;;;;;;4.17;58.09;99955.08;107752;1254;123988;-82
2023/03/06 09:45:56;;;;;;;;;;;;;;;4.19;58.01;99949.95;107486;1259;74413;-81
2023/03/06 09:48:46;;;;;;;;;;;;;;;4.14;57.63;99954.95;107742;1260;67558;-81
2023/03/06 09:51:14;;;;;;;;;;;;;;;4.11;57.43;99954.00;107986;1254;123707;-81
2023/03/06 09:53:58;;;;;;;;;;;;;;;4.14;57.29;99953.06;107982;1257;60938;-81
2023/03/06 09:56:29;;;;;;;;;;;;;;;4.32;57.33;99954.42;107703;1254;123628;-81
2023/03/06 09:59:02;;;;;;;;;;;;;;;4.52;56.93;99950.62;107757;1257;74704;-81
2023/03/06 10:01:30;;;;;;;;;;;;;;;4.67;56.59;99950.50;107613;1256;124090;-82
2023/03/06 10:04:16;;;;;;;;;;;;;;;4.73;56.47;99947.92;107680;1257;72724;-81
2023/03/06 10:07:00;;;;;;;;;;;;;;;4.78;56.24;99948.98;107249;1260;61359;-84
2023/03/06 10:09:44;;;;;;;;;;;;;;;4.83;55.60;99948.11;107049;1256;61876;-84
2023/03/06 10:12:22;;;;;;;;;;;;;;;4.80;55.07;99948.67;107347;1254;74258;-83
2023/03/06 10:28:23;;;;;;;;;;;;;;;4.24;54.04;99952.59;107370;1254;74065;-84
2023/03/06 10:30:59;;;;;;;;;;;;;;;4.25;53.95;99952.60;107867;1256;67701;-81
2023/03/06 10:33:30;;;;;;;;;;;;;;;4.31;54.02;99948.82;107949;1257;124670;-81
2023/03/06 10:35:59;;;;;;;;;;;;;;;4.51;54.21;99945.41;107872;1254;60492;-81
2023/03/06 10:38:29;;;;;;;;;;;;;;;4.81;54.28;99948.55;107618;1254;124677;-81
2023/03/06 10:40:59;;;;;;;;;;;;;;;5.16;53.79;99948.16;107510;1257;76883;-81
2023/03/06 10:43:27;;;;;;;;;;;;;;;5.42;53.28;99946.77;107771;1254;123943;-81
2023/03/06 10:45:56;;;;;;;;;;;;;;;5.59;53.31;99942.45;107420;1254;70442;-84
2023/03/06 10:48:49;;;;;;;;;;;;;;;5.70;53.05;99944.02;107003;1257;60505;-84
2023/03/06 10:51:22;;;;;;;;;;;;;;;5.71;52.78;99941.95;107028;1256;123604;-84
2023/03/06 10:57:28;;;;;;;;;;;;;;;5.68;52.13;99942.55;107019;1256;123559;-84
2023/03/06 11:07:08;;;;;;;;;;;;;;;5.50;51.14;99940.60;107299;1254;62139;-84
2023/03/06 11:09:36;;;;;;;;;;;;;;;5.43;50.88;99941.94;107302;1254;74680;-85
2023/03/06 11:15:24;;;;;;;;;;;;;;;5.12;50.35;99937.63;107094;1256;123550;-84
2023/03/06 11:21:23;;;;;;;;;;;;;;;5.03;50.64;99927.92;107080;1259;123601;-84
2023/03/06 11:23:50;;;;;;;;;;;;;;;5.12;50.63;99925.42;107841;1254;73406;-82
2023/03/06 11:26:18;;;;;;;;;;;;;;;5.19;50.27;99923.77;107559;1256;123567;-81
2023/03/06 11:28:46;;;;;;;;;;;;;;;5.24;50.13;99919.07;107830;1254;72409;-81
2023/03/06 11:31:13;;;;;;;;;;;;;;;5.35;50.18;99920.27;107575;1257;124106;-81
2023/03/06 11:33:41;;;;;;;;;;;;;;;5.51;50.18;99916.63;107776;1254;61356;-82
2023/03/06 11:36:17;;;;;;;;;;;;;;;5.69;50.02;99911.63;107800;1254;74764;-81
2023/03/06 11:38:44;;;;;;;;;;;;;;;5.83;49.63;99912.05;107803;1254;123843;-82
2023/03/06 11:41:30;;;;;;;;;;;;;;;5.90;49.41;99911.72;108173;1254;71882;-81
2023/03/06 11:44:12;;;;;;;;;;;;;;;5.94;49.28;99910.10;107965;1254;124143;-82
2023/03/06 11:46:40;;;;;;;;;;;;;;;5.98;49.08;99909.20;108047;1256;61198;-81
2023/03/06 11:49:16;;;;;;;;;;;;;;;6.00;49.06;99908.94;107891;1254;74746;-82
2023/03/06 11:51:47;;;;;;;;;;;;;;;5.99;48.93;99903.16;108046;1256;67094;-81
2023/03/06 11:54:14;;;;;;;;;;;;;;;5.97;48.92;99904.33;107893;1254;71695;-82
2023/03/06 11:56:41;;;;;;;;;;;;;;;5.96;48.91;99901.52;108020;1254;123579;-82
2023/03/06 11:59:14;;;;;;;;;;;;;;;6.02;48.93;99902.89;108027;1259;60122;-83
2023/03/06 12:02:00;;;;;;;;;;;;;;;6.05;48.72;99901.41;108901;1256;124186;-82
2023/03/06 12:04:45;;;;;;;;;;;;;;;5.99;48.60;99906.83;107890;1254;67536;-82
2023/03/06 12:07:35;;;;;;;;;;;;;;;5.93;48.29;99907.29;107690;1254;72642;-82
2023/03/06 12:10:11;;;;;;;;;;;;;;;5.89;48.25;99906.64;107853;1260;59332;-82
2023/03/06 12:12:54;;;;;;;;;;;;;;;5.85;48.19;99909.16;107935;1257;59861;-82
2023/03/06 12:15:42;;;;;;;;;;;;;;;5.81;48.16;99911.28;107402;1256;124085;-82
2023/03/06 12:18:15;;;;;;;;;;;;;;;5.74;48.19;99901.87;107693;1257;65464;-82
2023/03/06 12:20:51;;;;;;;;;;;;;;;5.70;48.01;99904.33;107659;1257;124373;-80
2023/03/06 12:23:27;;;;;;;;;;;;;;;5.62;48.05;99902.89;107858;1256;59535;-81
2023/03/06 12:26:17;;;;;;;;;;;;;;;5.67;48.15;99900.93;107494;1258;124070;-81
2023/03/06 12:28:45;;;;;;;;;;;;;;;5.78;48.10;99898.98;107543;1261;73464;-80
2023/03/06 12:31:15;;;;;;;;;;;;;;;5.85;47.96;99899.73;107819;1257;67983;-80
2023/03/06 12:34:01;;;;;;;;;;;;;;;5.90;47.92;99900.60;107712;1256;123440;-81
2023/03/06 12:36:32;;;;;;;;;;;;;;;5.91;47.40;99900.27;107922;1257;60535;-80
2023/03/06 12:39:02;;;;;;;;;;;;;;;5.89;47.08;99901.08;107595;1257;124159;-80
2023/03/06 12:41:29;;;;;;;;;;;;;;;5.90;47.02;99900.58;107785;1257;74789;-81
2023/03/06 12:43:59;;;;;;;;;;;;;;;5.91;46.94;99893.67;107672;1256;124522;-80
2023/03/06 12:46:27;;;;;;;;;;;;;;;5.98;46.96;99898.61;107834;1256;71421;-81
2023/03/06 12:49:04;;;;;;;;;;;;;;;6.07;46.81;99893.30;107834;1259;59371;-81
2023/03/06 12:51:31;;;;;;;;;;;;;;;6.17;46.62;99893.41;107451;1256;123594;-81
2023/03/06 12:53:58;;;;;;;;;;;;;;;6.23;46.54;99890.09;107641;1258;73260;-81
2023/03/06 12:56:25;;;;;;;;;;;;;;;6.33;46.47;99891.78;107956;1262;124659;-81
2023/03/06 12:58:53;;;;;;;;;;;;;;;6.40;46.19;99892.15;108154;1256;73290;-81
2023/03/06 13:01:38;;;;;;;;;;;;;;;6.48;46.16;99891.66;108029;1256;124248;-80
2023/03/06 13:04:14;;;;;;;;;;;;;;;6.53;45.91;99892.31;107827;1256;61047;-81
2023/03/06 13:06:59;;;;;;;;;;;;;;;6.43;45.79;99886.46;107798;1256;73376;-81
2023/03/06 13:10:05;;;;;;;;;;;;;;;6.35;45.83;99882.07;107877;1256;123777;-84
2023/03/06 13:12:44;;;;;;;;;;;;;;;6.33;45.78;99881.14;106748;1266;72598;-81
2023/03/06 13:15:31;;;;;;;;;;;;;;;6.33;45.68;99878.52;106677;1262;123742;-84
2023/03/06 13:18:00;;;;;;;;;;;;;;;6.33;45.68;99872.59;107276;1262;60313;-81
2023/03/06 13:20:50;;;;;;;;;;;;;;;6.27;45.52;99874.00;106816;1262;123840;-84
2023/03/06 13:36:37;;;;;;;;;;;;;;;5.93;45.27;99866.58;106998;1262;74742;-83
2023/03/06 13:39:13;;;;;;;;;;;;;;;5.88;45.20;99869.20;106577;1262;123768;-83
2023/03/06 13:42:01;;;;;;;;;;;;;;;5.80;45.23;99872.63;106935;1262;70313;-85
2023/03/06 13:51:25;;;;;;;;;;;;;;;5.89;45.25;99872.70;107162;1255;123637;-84
2023/03/06 13:54:18;;;;;;;;;;;;;;;5.94;45.21;99872.33;107299;1256;67095;-84
2023/03/06 13:57:12;;;;;;;;;;;;;;;6.01;45.16;99870.32;107120;1256;123830;-84
2023/03/06 14:10:08;;;;;;;;;;;;;;;5.93;44.16;99859.94;107171;1254;66726;-84
2023/03/06 14:13:08;;;;;;;;;;;;;;;5.89;43.92;99859.63;107204;1255;72759;-84
2023/03/06 14:15:43;;;;;;;;;;;;;;;5.76;43.76;99868.31;107475;1256;123791;-84
2023/03/06 14:18:12;;;;;;;;;;;;;;;5.61;43.58;99867.51;107784;1254;61142;-81
2023/03/06 14:20:41;;;;;;;;;;;;;;;5.45;43.60;99868.95;107854;1256;123605;-82
2023/03/06 14:23:17;;;;;;;;;;;;;;;5.30;43.69;99870.20;107775;1254;66957;-82
2023/03/06 14:25:44;;;;;;;;;;;;;;;5.14;43.71;99870.55;107519;1256;123965;-84
2023/03/06 14:28:26;;;;;;;;;;;;;;;4.95;43.73;99869.40;107529;1254;61295;-85
2023/03/06 14:31:26;;;;;;;;;;;;;;;4.82;44.00;99870.90;107417;1254;60497;-84
2023/03/06 14:37:28;;;;;;;;;;;;;;;4.56;44.29;99873.11;107260;1254;66262;-84
2023/03/06 14:40:09;;;;;;;;;;;;;;;4.46;44.20;99871.88;107003;1256;72704;-84
2023/03/06 14:43:08;;;;;;;;;;;;;;;4.33;44.16;99874.91;107101;1254;62182;-84
2023/03/06 14:49:28;;;;;;;;;;;;;;;3.95;46.34;99880.11;107179;1256;73637;-84
2023/03/06 14:52:10;;;;;;;;;;;;;;;3.70;47.59;99878.85;107086;1257;67036;-85
2023/03/06 14:54:55;;;;;;;;;;;;;;;3.56;48.20;99878.65;107488;1254;72749;-85
2023/03/06 15:00:50;;;;;;;;;;;;;;;3.17;49.57;99880.92;107240;1257;61254;-85
2023/03/06 15:03:22;;;;;;;;;;;;;;;2.97;50.17;99884.60;107295;1256;123621;-86
2023/03/06 15:06:02;;;;;;;;;;;;;;;2.81;50.70;99886.35;107440;1255;65752;-86
2023/03/06 15:08:30;;;;;;;;;;;;;;;2.64;51.36;99888.94;107273;1254;124494;-85
2023/03/06 15:11:00;;;;;;;;;;;;;;;2.52;51.84;99888.75;107200;1254;60425;-85
2023/03/06 15:13:40;;;;;;;;;;;;;;;2.38;52.22;99886.77;107309;1257;61205;-83
2023/03/06 15:16:26;;;;;;;;;;;;;;;2.24;52.60;99880.30;107791;1254;74538;-86
2023/03/06 15:18:58;;;;;;;;;;;;;;;2.17;53.19;99886.04;107494;1254;64962;-84
2023/03/06 15:21:28;;;;;;;;;;;;;;;2.09;53.29;99887.60;107391;1256;124231;-81
2023/03/06 15:23:55;;;;;;;;;;;;;;;2.02;53.73;99887.61;107818;1254;60331;-82
2023/03/06 15:26:24;;;;;;;;;;;;;;;1.99;54.02;99889.73;107408;1256;124503;-82
2023/03/06 15:28:56;;;;;;;;;;;;;;;1.99;54.40;99892.98;108007;1254;75232;-81
2023/03/06 15:31:29;;;;;;;;;;;;;;;1.97;54.56;99893.97;107457;1256;65766;-83
2023/03/06 15:34:03;;;;;;;;;;;;;;;1.90;54.72;99894.54;107542;1254;124224;-82
2023/03/06 15:36:30;;;;;;;;;;;;;;;1.82;54.86;99895.17;107712;1255;60982;-83
2023/03/06 15:39:21;;;;;;;;;;;;;;;1.78;55.28;99898.61;107870;1256;124044;-82
2023/03/06 15:41:54;;;;;;;;;;;;;;;1.70;55.62;99897.05;108171;1254;74379;-81
2023/03/06 15:44:21;;;;;;;;;;;;;;;1.66;55.82;99898.08;108139;1254;124384;-82
2023/03/06 15:46:48;;;;;;;;;;;;;;;1.65;56.32;99900.11;108199;1254;71143;-82
2023/03/06 15:49:16;;;;;;;;;;;;;;;1.61;56.26;99897.81;108151;1254;60984;-82
2023/03/06 15:51:43;;;;;;;;;;;;;;;1.57;56.70;99896.61;107600;1254;123667;-82
2023/03/06 15:54:11;;;;;;;;;;;;;;;1.50;57.32;99890.73;107478;1256;73147;-83
2023/03/06 15:56:39;;;;;;;;;;;;;;;1.41;57.53;99884.63;107587;1254;123651;-82
2023/03/06 15:59:09;;;;;;;;;;;;;;;1.32;57.89;99883.34;107873;1258;73253;-81
2023/03/06 16:01:37;;;;;;;;;;;;;;;1.24;58.34;99877.40;107590;1256;124704;-82
2023/03/06 16:04:04;;;;;;;;;;;;;;;1.20;58.59;99876.17;107738;1258;61456;-82
2023/03/06 16:06:31;;;;;;;;;;;;;;;1.12;58.81;99879.10;107840;1256;73178;-81
2023/03/06 16:08:58;;;;;;;;;;;;;;;1.06;59.15;99880.52;107853;1257;124171;-82